sensor_id;sensor_type;location;lat;lon;timestamp;pressure;altitude;pressure_sealevel;temperature;humidity
54546;BME280;40444;45.184;9.850;2023-02-01T00:01:24;101421.47;;;2.36;100.00
54546;BME280;40444;45.184;9.850;2023-02-01T00:03:52;101420.72;;;2.32;100.00
54546;BME280;40444;45.184;9.850;2023-02-01T00:06:21;101420.94;;;2.27;100.00
54546;BME280;40444;45.184;9.850;2023-02-01T00:08:52;101421.94;;;2.25;100.00
54546;BME280;40444;45.184;9.850;2023-02-01T00:11:23;101422.06;;;2.22;100.00
54546;BME280;40444;45.184;9.850;2023-02-01T00:13:51;101431.03;;;2.18;100.00
54546;BME280;40444;45.184;9.850;2023-02-01T00:16:22;101412.72;;;2.13;100.00
54546;BME280;40444;45.184;9.850;2023-02-01T00:18:56;101428.78;;;2.09;100.00
54546;BME280;40444;45.184;9.850;2023-02-01T00:21:25;101430.63;;;2.07;100.00
54546;BME280;40444;45.184;9.850;2023-02-01T00:23:54;101433.28;;;2.07;100.00
54546;BME280;40444;45.184;9.850;2023-02-01T00:26:31;101432.47;;;2.05;100.00
54546;BME280;40444;45.184;9.850;2023-02-01T00:29:01;101427.13;;;2.06;100.00
54546;BME280;40444;45.184;9.850;2023-02-01T00:31:30;101419.19;;;2.06;100.00
54546;BME280;40444;45.184;9.850;2023-02-01T00:33:59;101422.69;;;2.07;100.00
54546;BME280;40444;45.184;9.850;2023-02-01T00:36:27;101426.28;;;2.06;100.00
54546;BME280;40444;45.184;9.850;2023-02-01T00:38:56;101427.31;;;2.01;100.00
54546;BME280;40444;45.184;9.850;2023-02-01T00:41:25;101422.22;;;1.97;100.00
54546;BME280;40444;45.184;9.850;2023-02-01T00:43:54;101413.75;;;1.89;100.00
54546;BME280;40444;45.184;9.850;2023-02-01T00:46:23;101427.31;;;1.80;100.00
54546;BME280;40444;45.184;9.850;2023-02-01T00:48:51;101424.00;;;1.74;100.00
54546;BME280;40444;45.184;9.850;2023-02-01T00:51:25;101419.69;;;1.72;100.00
54546;BME280;40444;45.184;9.850;2023-02-01T00:53:55;101411.03;;;1.68;100.00
54546;BME280;40444;45.184;9.850;2023-02-01T00:56:25;101411.03;;;1.68;100.00
54546;BME280;40444;45.184;9.850;2023-02-01T00:58:55;101412.88;;;1.66;100.00
54546;BME280;40444;45.184;9.850;2023-02-01T01:01:26;101417.16;;;1.69;100.00
54546;BME280;40444;45.184;9.850;2023-02-01T01:03:57;101420.66;;;1.69;100.00
54546;BME280;40444;45.184;9.850;2023-02-01T01:06:29;101418.03;;;1.69;100.00
54546;BME280;40444;45.184;9.850;2023-02-01T01:08:59;101419.63;;;1.73;100.00
54546;BME280;40444;45.184;9.850;2023-02-01T01:11:32;101421.28;;;1.76;100.00
54546;BME280;40444;45.184;9.850;2023-02-01T01:14:00;101414.22;;;1.76;100.00
54546;BME280;40444;45.184;9.850;2023-02-01T01:16:30;101420.44;;;1.75;100.00
54546;BME280;40444;45.184;9.850;2023-02-01T01:18:59;101420.38;;;1.77;100.00
54546;BME280;40444;45.184;9.850;2023-02-01T01:21:28;101408.00;;;1.77;100.00
54546;BME280;40444;45.184;9.850;2023-02-01T01:23:57;101408.75;;;1.81;100.00
54546;BME280;40444;45.184;9.850;2023-02-01T01:26:27;101413.06;;;1.84;100.00
54546;BME280;40444;45.184;9.850;2023-02-01T01:28:57;101415.75;;;1.82;100.00
54546;BME280;40444;45.184;9.850;2023-02-01T01:31:26;101408.09;;;1.76;100.00
54546;BME280;40444;45.184;9.850;2023-02-01T01:33:57;101413.66;;;1.68;100.00
54546;BME280;40444;45.184;9.850;2023-02-01T01:36:27;101410.41;;;1.62;100.00
54546;BME280;40444;45.184;9.850;2023-02-01T01:38:56;101411.50;;;1.56;100.00
54546;BME280;40444;45.184;9.850;2023-02-01T01:41:29;101406.47;;;1.50;100.00
54546;BME280;40444;45.184;9.850;2023-02-01T01:44:06;101414.50;;;1.47;100.00
54546;BME280;40444;45.184;9.850;2023-02-01T01:46:54;101410.22;;;1.44;100.00
54546;BME280;40444;45.184;9.850;2023-02-01T01:49:24;101421.75;;;1.42;100.00
54546;BME280;40444;45.184;9.850;2023-02-01T01:51:57;101421.81;;;1.40;100.00
54546;BME280;40444;45.184;9.850;2023-02-01T01:54:34;101415.69;;;1.40;100.00
54546;BME280;40444;45.184;9.850;2023-02-01T01:57:09;101419.25;;;1.39;100.00
54546;BME280;40444;45.184;9.850;2023-02-01T01:59:40;101420.22;;;1.36;100.00
54546;BME280;40444;45.184;9.850;2023-02-01T02:02:10;101419.47;;;1.33;100.00
54546;BME280;40444;45.184;9.850;2023-02-01T02:04:39;101428.31;;;1.32;100.00
54546;BME280;40444;45.184;9.850;2023-02-01T02:07:14;101424.81;;;1.31;100.00
54546;BME280;40444;45.184;9.850;2023-02-01T02:09:44;101415.91;;;1.34;100.00
54546;BME280;40444;45.184;9.850;2023-02-01T02:12:27;101416.72;;;1.36;100.00
54546;BME280;40444;45.184;9.850;2023-02-01T02:14:56;101413.03;;;1.40;100.00
54546;BME280;40444;45.184;9.850;2023-02-01T02:31:58;101407.78;;;1.38;100.00
54546;BME280;40444;45.184;9.850;2023-02-01T02:34:38;101407.44;;;1.25;100.00
54546;BME280;40444;45.184;9.850;2023-02-01T02:39:57;101396.81;;;1.27;100.00
54546;BME280;40444;45.184;9.850;2023-02-01T02:45:43;101408.03;;;1.32;100.00
54546;BME280;40444;45.184;9.850;2023-02-01T02:48:38;101402.88;;;1.29;100.00
54546;BME280;40444;45.184;9.850;2023-02-01T02:51:25;101408.97;;;1.08;100.00
54546;BME280;40444;45.184;9.850;2023-02-01T02:54:22;101408.50;;;1.20;100.00
54546;BME280;40444;45.184;9.850;2023-02-01T02:57:35;101410.00;;;1.27;100.00
54546;BME280;40444;45.184;9.850;2023-02-01T03:00:24;101408.03;;;1.32;100.00
54546;BME280;40444;45.184;9.850;2023-02-01T03:03:14;101401.78;;;1.35;100.00
54546;BME280;40444;45.184;9.850;2023-02-01T03:06:01;101403.41;;;1.39;100.00
54546;BME280;40444;45.184;9.850;2023-02-01T03:08:30;101406.72;;;1.44;100.00
54546;BME280;40444;45.184;9.850;2023-02-01T03:11:00;101405.72;;;1.46;100.00
54546;BME280;40444;45.184;9.850;2023-02-01T03:16:28;101410.78;;;1.52;100.00
54546;BME280;40444;45.184;9.850;2023-02-01T03:21:47;101412.25;;;1.60;100.00
54546;BME280;40444;45.184;9.850;2023-02-01T03:24:23;101417.34;;;1.64;100.00
54546;BME280;40444;45.184;9.850;2023-02-01T03:27:13;101414.59;;;1.67;100.00
54546;BME280;40444;45.184;9.850;2023-02-01T03:29:52;101419.75;;;1.70;100.00
54546;BME280;40444;45.184;9.850;2023-02-01T03:32:23;101421.47;;;1.71;100.00
54546;BME280;40444;45.184;9.850;2023-02-01T03:34:51;101423.13;;;1.74;100.00
54546;BME280;40444;45.184;9.850;2023-02-01T03:37:25;101423.09;;;1.75;100.00
54546;BME280;40444;45.184;9.850;2023-02-01T03:40:05;101415.09;;;1.77;100.00
54546;BME280;40444;45.184;9.850;2023-02-01T03:42:38;101414.13;;;1.80;100.00
54546;BME280;40444;45.184;9.850;2023-02-01T03:45:16;101418.53;;;1.79;100.00
54546;BME280;40444;45.184;9.850;2023-02-01T03:47:50;101415.91;;;1.79;100.00
54546;BME280;40444;45.184;9.850;2023-02-01T03:50:22;101416.78;;;1.78;100.00
54546;BME280;40444;45.184;9.850;2023-02-01T03:53:02;101409.72;;;1.78;100.00
54546;BME280;40444;45.184;9.850;2023-02-01T03:55:32;101406.13;;;1.81;100.00
54546;BME280;40444;45.184;9.850;2023-02-01T03:58:13;101408.69;;;1.83;100.00
54546;BME280;40444;45.184;9.850;2023-02-01T04:00:50;101405.16;;;1.84;100.00
54546;BME280;40444;45.184;9.850;2023-02-01T04:03:19;101406.78;;;1.86;100.00
54546;BME280;40444;45.184;9.850;2023-02-01T04:05:50;101415.56;;;1.87;100.00
54546;BME280;40444;45.184;9.850;2023-02-01T04:08:21;101398.31;;;1.78;100.00
54546;BME280;40444;45.184;9.850;2023-02-01T04:10:49;101401.69;;;1.82;100.00
54546;BME280;40444;45.184;9.850;2023-02-01T04:13:18;101405.25;;;1.81;100.00
54546;BME280;40444;45.184;9.850;2023-02-01T04:15:47;101406.03;;;1.83;100.00
54546;BME280;40444;45.184;9.850;2023-02-01T04:18:17;101407.78;;;1.84;100.00
54546;BME280;40444;45.184;9.850;2023-02-01T04:20:45;101417.34;;;1.86;100.00
54546;BME280;40444;45.184;9.850;2023-02-01T04:23:14;101415.44;;;1.90;100.00
54546;BME280;40444;45.184;9.850;2023-02-01T04:25:43;101415.38;;;1.91;100.00
54546;BME280;40444;45.184;9.850;2023-02-01T04:28:12;101421.53;;;1.92;100.00
54546;BME280;40444;45.184;9.850;2023-02-01T04:30:40;101411.84;;;1.92;100.00
54546;BME280;40444;45.184;9.850;2023-02-01T04:33:09;101410.94;;;1.92;100.00
54546;BME280;40444;45.184;9.850;2023-02-01T04:35:37;101411.03;;;1.90;100.00
54546;BME280;40444;45.184;9.850;2023-02-01T04:38:05;101400.53;;;1.89;100.00
54546;BME280;40444;45.184;9.850;2023-02-01T04:40:34;101397.94;;;1.87;100.00
54546;BME280;40444;45.184;9.850;2023-02-01T04:43:05;101406.97;;;1.82;100.00
54546;BME280;40444;45.184;9.850;2023-02-01T04:45:34;101404.50;;;1.77;100.00
54546;BME280;40444;45.184;9.850;2023-02-01T04:48:02;101403.84;;;1.72;100.00
54546;BME280;40444;45.184;9.850;2023-02-01T04:50:31;101406.59;;;1.69;100.00
54546;BME280;40444;45.184;9.850;2023-02-01T04:52:59;101407.59;;;1.66;100.00
54546;BME280;40444;45.184;9.850;2023-02-01T04:55:28;101407.81;;;1.60;100.00
54546;BME280;40444;45.184;9.850;2023-02-01T04:57:56;101414.28;;;1.53;100.00
54546;BME280;40444;45.184;9.850;2023-02-01T05:00:25;101417.03;;;1.50;100.00
54546;BME280;40444;45.184;9.850;2023-02-01T16:59:22;101236.38;;;9.57;100.00
54546;BME280;40444;45.184;9.850;2023-02-01T17:01:51;101246.91;;;9.71;100.00
54546;BME280;40444;45.184;9.850;2023-02-01T17:04:22;101244.28;;;9.82;100.00
54546;BME280;40444;45.184;9.850;2023-02-01T17:06:51;101254.16;;;9.93;100.00
54546;BME280;40444;45.184;9.850;2023-02-01T17:09:19;101257.81;;;10.03;100.00
54546;BME280;40444;45.184;9.850;2023-02-01T17:11:48;101261.34;;;10.04;100.00
54546;BME280;40444;45.184;9.850;2023-02-01T17:14:19;101265.56;;;9.95;100.00
54546;BME280;40444;45.184;9.850;2023-02-01T17:16:49;101273.59;;;9.95;100.00
54546;BME280;40444;45.184;9.850;2023-02-01T17:19:20;101261.97;;;9.96;100.00
54546;BME280;40444;45.184;9.850;2023-02-01T17:21:54;101273.88;;;9.92;100.00
54546;BME280;40444;45.184;9.850;2023-02-01T17:24:27;101265.56;;;9.84;100.00
54546;BME280;40444;45.184;9.850;2023-02-01T17:27:15;101267.31;;;9.72;100.00
54546;BME280;40444;45.184;9.850;2023-02-01T17:29:44;101269.38;;;9.69;100.00
54546;BME280;40444;45.184;9.850;2023-02-01T17:32:17;101274.72;;;9.69;100.00
54546;BME280;40444;45.184;9.850;2023-02-01T17:34:46;101277.66;;;9.66;100.00
54546;BME280;40444;45.184;9.850;2023-02-01T17:37:26;101286.25;;;9.58;100.00
54546;BME280;40444;45.184;9.850;2023-02-01T17:39:55;101288.63;;;9.50;99.88
54546;BME280;40444;45.184;9.850;2023-02-01T17:42:28;101286.00;;;9.37;99.64
54546;BME280;40444;45.184;9.850;2023-02-01T17:45:01;101291.44;;;9.24;100.00
54546;BME280;40444;45.184;9.850;2023-02-01T17:47:30;101289.38;;;9.15;100.00
54546;BME280;40444;45.184;9.850;2023-02-01T17:49:58;101304.19;;;9.08;100.00
54546;BME280;40444;45.184;9.850;2023-02-01T17:52:27;101296.06;;;8.97;100.00
54546;BME280;40444;45.184;9.850;2023-02-01T17:54:57;101300.81;;;8.93;100.00
54546;BME280;40444;45.184;9.850;2023-02-01T17:57:25;101301.88;;;8.91;100.00
54546;BME280;40444;45.184;9.850;2023-02-01T17:59:53;101300.16;;;8.90;100.00
54546;BME280;40444;45.184;9.850;2023-02-01T18:02:23;101300.81;;;8.68;100.00
54546;BME280;40444;45.184;9.850;2023-02-01T18:04:52;101297.63;;;8.75;100.00
54546;BME280;40444;45.184;9.850;2023-02-01T18:07:20;101293.66;;;8.81;100.00
54546;BME280;40444;45.184;9.850;2023-02-01T18:09:49;101302.19;;;8.86;100.00
54546;BME280;40444;45.184;9.850;2023-02-01T18:12:22;101302.66;;;8.80;100.00
54546;BME280;40444;45.184;9.850;2023-02-01T18:14:52;101301.88;;;8.78;100.00
54546;BME280;40444;45.184;9.850;2023-02-01T18:17:20;101304.16;;;8.71;100.00
54546;BME280;40444;45.184;9.850;2023-02-01T18:19:49;101309.06;;;8.65;100.00
54546;BME280;40444;45.184;9.850;2023-02-01T18:22:20;101305.66;;;8.50;100.00
54546;BME280;40444;45.184;9.850;2023-02-01T18:24:50;101306.16;;;8.42;100.00
54546;BME280;40444;45.184;9.850;2023-02-01T18:27:19;101307.34;;;8.38;100.00
54546;BME280;40444;45.184;9.850;2023-02-01T18:29:47;101311.25;;;8.32;100.00
54546;BME280;40444;45.184;9.850;2023-02-01T18:32:17;101306.97;;;8.30;100.00
54546;BME280;40444;45.184;9.850;2023-02-01T18:34:46;101309.34;;;8.22;100.00
54546;BME280;40444;45.184;9.850;2023-02-01T18:37:15;101312.88;;;8.22;100.00
54546;BME280;40444;45.184;9.850;2023-02-01T18:39:44;101315.72;;;8.19;100.00
54546;BME280;40444;45.184;9.850;2023-02-01T18:42:12;101313.19;;;8.18;100.00
54546;BME280;40444;45.184;9.850;2023-02-01T18:44:41;101311.03;;;8.10;100.00
54546;BME280;40444;45.184;9.850;2023-02-01T18:47:09;101317.53;;;8.06;100.00
54546;BME280;40444;45.184;9.850;2023-02-01T18:49:38;101314.19;;;8.02;100.00
54546;BME280;40444;45.184;9.850;2023-02-01T18:52:06;101321.66;;;7.97;100.00
54546;BME280;40444;45.184;9.850;2023-02-01T18:54:34;101313.78;;;7.96;100.00
54546;BME280;40444;45.184;9.850;2023-02-01T18:57:02;101310.34;;;7.94;100.00
54546;BME280;40444;45.184;9.850;2023-02-01T18:59:31;101311.59;;;7.88;100.00
54546;BME280;40444;45.184;9.850;2023-02-01T19:02:02;101314.16;;;7.77;100.00
54546;BME280;40444;45.184;9.850;2023-02-01T19:04:31;101313.69;;;7.70;100.00
54546;BME280;40444;45.184;9.850;2023-02-01T19:06:59;101308.16;;;7.73;100.00
54546;BME280;40444;45.184;9.850;2023-02-01T19:09:28;101301.50;;;7.66;100.00
54546;BME280;40444;45.184;9.850;2023-02-01T19:11:59;101305.75;;;7.56;100.00
54546;BME280;40444;45.184;9.850;2023-02-01T19:14:27;101315.25;;;7.60;100.00
54546;BME280;40444;45.184;9.850;2023-02-01T19:16:55;101306.50;;;7.58;100.00
54546;BME280;40444;45.184;9.850;2023-02-01T19:19:25;101308.50;;;7.54;100.00
54546;BME280;40444;45.184;9.850;2023-02-01T19:21:53;101313.19;;;7.51;100.00
54546;BME280;40444;45.184;9.850;2023-02-01T19:24:22;101313.50;;;7.46;100.00
54546;BME280;40444;45.184;9.850;2023-02-01T19:26:54;101318.28;;;7.41;100.00
54546;BME280;40444;45.184;9.850;2023-02-01T19:29:24;101314.41;;;7.32;100.00
54546;BME280;40444;45.184;9.850;2023-02-01T19:31:53;101327.25;;;7.26;100.00
54546;BME280;40444;45.184;9.850;2023-02-01T19:34:22;101323.53;;;7.14;100.00
54546;BME280;40444;45.184;9.850;2023-02-01T19:36:50;101323.19;;;7.06;100.00
54546;BME280;40444;45.184;9.850;2023-02-01T19:39:19;101318.47;;;6.97;100.00
54546;BME280;40444;45.184;9.850;2023-02-01T19:41:49;101324.16;;;6.91;100.00
54546;BME280;40444;45.184;9.850;2023-02-01T19:44:17;101324.16;;;6.91;100.00
54546;BME280;40444;45.184;9.850;2023-02-01T19:46:46;101320.34;;;6.95;100.00
54546;BME280;40444;45.184;9.850;2023-02-01T19:49:14;101316.91;;;6.78;100.00
54546;BME280;40444;45.184;9.850;2023-02-01T19:51:43;101314.84;;;6.55;100.00
54546;BME280;40444;45.184;9.850;2023-02-01T19:54:11;101311.19;;;6.42;100.00
54546;BME280;40444;45.184;9.850;2023-02-01T19:56:40;101309.69;;;6.38;100.00
54546;BME280;40444;45.184;9.850;2023-02-01T19:59:10;101312.72;;;6.31;100.00
54546;BME280;40444;45.184;9.850;2023-02-01T20:01:39;101309.75;;;6.22;100.00
54546;BME280;40444;45.184;9.850;2023-02-01T20:04:07;101307.72;;;6.11;100.00
54546;BME280;40444;45.184;9.850;2023-02-01T20:06:38;101309.22;;;6.01;100.00
54546;BME280;40444;45.184;9.850;2023-02-01T20:09:06;101304.28;;;5.95;100.00
54546;BME280;40444;45.184;9.850;2023-02-01T20:11:35;101306.41;;;5.88;100.00
54546;BME280;40444;45.184;9.850;2023-02-01T20:14:03;101309.59;;;5.95;100.00
54546;BME280;40444;45.184;9.850;2023-02-01T20:16:31;101315.00;;;5.93;100.00
54546;BME280;40444;45.184;9.850;2023-02-01T20:19:00;101308.88;;;5.91;100.00
54546;BME280;40444;45.184;9.850;2023-02-01T20:21:28;101310.69;;;5.91;100.00
54546;BME280;40444;45.184;9.850;2023-02-01T20:23:56;101314.31;;;5.90;100.00
54546;BME280;40444;45.184;9.850;2023-02-01T20:26:25;101315.50;;;5.84;100.00
54546;BME280;40444;45.184;9.850;2023-02-01T20:28:53;101312.19;;;5.80;100.00
54546;BME280;40444;45.184;9.850;2023-02-01T20:31:22;101309.31;;;5.83;100.00
54546;BME280;40444;45.184;9.850;2023-02-01T20:33:52;101327.09;;;5.83;100.00
54546;BME280;40444;45.184;9.850;2023-02-01T20:36:20;101327.88;;;5.85;100.00
54546;BME280;40444;45.184;9.850;2023-02-01T20:38:48;101327.00;;;5.84;100.00
54546;BME280;40444;45.184;9.850;2023-02-01T20:41:17;101322.19;;;5.91;100.00
54546;BME280;40444;45.184;9.850;2023-02-01T20:43:46;101320.47;;;5.90;100.00
54546;BME280;40444;45.184;9.850;2023-02-01T20:46:15;101323.06;;;5.92;100.00
54546;BME280;40444;45.184;9.850;2023-02-01T20:48:47;101319.78;;;5.87;100.00
54546;BME280;40444;45.184;9.850;2023-02-01T20:51:18;101313.13;;;5.95;100.00
54546;BME280;40444;45.184;9.850;2023-02-01T20:53:49;101307.97;;;5.92;100.00
54546;BME280;40444;45.184;9.850;2023-02-01T20:56:28;101319.13;;;5.83;100.00
54546;BME280;40444;45.184;9.850;2023-02-01T20:58:57;101319.13;;;5.83;100.00
54546;BME280;40444;45.184;9.850;2023-02-01T21:01:29;101310.69;;;5.91;100.00
54546;BME280;40444;45.184;9.850;2023-02-01T21:03:58;101310.13;;;5.86;100.00
54546;BME280;40444;45.184;9.850;2023-02-01T21:06:26;101316.00;;;5.91;100.00
54546;BME280;40444;45.184;9.850;2023-02-01T21:08:54;101310.88;;;5.88;100.00
54546;BME280;40444;45.184;9.850;2023-02-01T21:11:22;101315.94;;;5.92;100.00
54546;BME280;40444;45.184;9.850;2023-02-01T21:13:50;101316.19;;;5.88;100.00
54546;BME280;40444;45.184;9.850;2023-02-01T21:16:20;101312.84;;;5.84;100.00
54546;BME280;40444;45.184;9.850;2023-02-01T21:18:52;101309.00;;;5.90;100.00
54546;BME280;40444;45.184;9.850;2023-02-01T21:21:20;101301.28;;;5.85;100.00
54546;BME280;40444;45.184;9.850;2023-02-01T21:23:48;101301.34;;;5.99;100.00
54546;BME280;40444;45.184;9.850;2023-02-01T21:26:19;101307.63;;;5.82;100.00
54546;BME280;40444;45.184;9.850;2023-02-01T21:28:52;101300.75;;;5.78;100.00
54546;BME280;40444;45.184;9.850;2023-02-01T21:31:21;101291.56;;;5.84;100.00
54546;BME280;40444;45.184;9.850;2023-02-01T21:33:52;101295.00;;;5.86;100.00
54546;BME280;40444;45.184;9.850;2023-02-01T21:36:21;101293.38;;;5.83;100.00
54546;BME280;40444;45.184;9.850;2023-02-01T21:38:52;101292.94;;;5.91;100.00
54546;BME280;40444;45.184;9.850;2023-02-01T21:41:23;101307.44;;;5.86;100.00
54546;BME280;40444;45.184;9.850;2023-02-01T21:44:10;101305.53;;;5.88;100.00
54546;BME280;40444;45.184;9.850;2023-02-01T21:46:42;101302.19;;;5.84;100.00
54546;BME280;40444;45.184;9.850;2023-02-01T21:49:10;101315.50;;;5.84;100.00
54546;BME280;40444;45.184;9.850;2023-02-01T21:51:38;101318.50;;;5.94;100.00
54546;BME280;40444;45.184;9.850;2023-02-01T21:54:08;101323.22;;;5.89;100.00
54546;BME280;40444;45.184;9.850;2023-02-01T21:56:38;101329.00;;;5.81;100.00
54546;BME280;40444;45.184;9.850;2023-02-01T21:59:07;101325.72;;;5.92;100.00
54546;BME280;40444;45.184;9.850;2023-02-01T22:01:38;101324.59;;;5.96;100.00
54546;BME280;40444;45.184;9.850;2023-02-01T22:04:07;101321.56;;;6.02;100.00
54546;BME280;40444;45.184;9.850;2023-02-01T22:06:39;101325.47;;;5.96;100.00
54546;BME280;40444;45.184;9.850;2023-02-01T22:09:19;101336.38;;;5.92;100.00
54546;BME280;40444;45.184;9.850;2023-02-01T22:11:49;101332.69;;;5.94;100.00
54546;BME280;40444;45.184;9.850;2023-02-01T22:14:18;101338.75;;;5.96;100.00
54546;BME280;40444;45.184;9.850;2023-02-01T22:16:47;101336.28;;;5.93;100.00
54546;BME280;40444;45.184;9.850;2023-02-01T22:19:15;101339.09;;;5.90;100.00
54546;BME280;40444;45.184;9.850;2023-02-01T22:21:45;101337.13;;;5.94;100.00
54546;BME280;40444;45.184;9.850;2023-02-01T22:24:16;101347.00;;;5.92;100.00
54546;BME280;40444;45.184;9.850;2023-02-01T22:26:48;101342.69;;;5.89;100.00
54546;BME280;40444;45.184;9.850;2023-02-01T22:29:17;101338.41;;;5.87;100.00
54546;BME280;40444;45.184;9.850;2023-02-01T22:31:46;101344.50;;;5.89;100.00
54546;BME280;40444;45.184;9.850;2023-02-01T22:34:14;101339.69;;;5.79;100.00
54546;BME280;40444;45.184;9.850;2023-02-01T22:36:45;101348.31;;;5.69;100.00
54546;BME280;40444;45.184;9.850;2023-02-01T22:39:15;101334.75;;;5.73;100.00
54546;BME280;40444;45.184;9.850;2023-02-01T22:41:44;101339.38;;;5.70;100.00
54546;BME280;40444;45.184;9.850;2023-02-01T22:44:12;101341.03;;;5.72;100.00
54546;BME280;40444;45.184;9.850;2023-02-01T22:46:41;101338.03;;;5.63;100.00
54546;BME280;40444;45.184;9.850;2023-02-01T22:49:10;101333.84;;;5.58;100.00
54546;BME280;40444;45.184;9.850;2023-02-01T22:51:39;101326.44;;;5.64;100.00
54546;BME280;40444;45.184;9.850;2023-02-01T22:54:17;101324.47;;;5.67;100.00
54546;BME280;40444;45.184;9.850;2023-02-01T22:56:48;101332.88;;;5.60;100.00
54546;BME280;40444;45.184;9.850;2023-02-01T22:59:16;101335.59;;;5.58;100.00
54546;BME280;40444;45.184;9.850;2023-02-01T23:01:45;101334.31;;;5.65;100.00
54546;BME280;40444;45.184;9.850;2023-02-01T23:04:14;101338.13;;;5.45;100.00
54546;BME280;40444;45.184;9.850;2023-02-01T23:06:42;101331.78;;;5.48;100.00
54546;BME280;40444;45.184;9.850;2023-02-01T23:09:16;101328.41;;;5.44;100.00
54546;BME280;40444;45.184;9.850;2023-02-01T23:11:45;101334.53;;;5.46;100.00
54546;BME280;40444;45.184;9.850;2023-02-01T23:14:15;101331.34;;;5.55;100.00
54546;BME280;40444;45.184;9.850;2023-02-01T23:16:44;101344.56;;;5.41;100.00
54546;BME280;40444;45.184;9.850;2023-02-01T23:19:13;101343.78;;;5.39;100.00
54546;BME280;40444;45.184;9.850;2023-02-01T23:21:41;101342.91;;;5.39;100.00
54546;BME280;40444;45.184;9.850;2023-02-01T23:24:09;101347.97;;;5.43;100.00
54546;BME280;40444;45.184;9.850;2023-02-01T23:26:38;101348.84;;;5.44;100.00
54546;BME280;40444;45.184;9.850;2023-02-01T23:29:15;101357.59;;;5.46;100.00
54546;BME280;40444;45.184;9.850;2023-02-01T23:31:44;101349.44;;;5.49;100.00
54546;BME280;40444;45.184;9.850;2023-02-01T23:34:12;101346.75;;;5.49;100.00
54546;BME280;40444;45.184;9.850;2023-02-01T23:36:40;101350.38;;;5.48;100.00
54546;BME280;40444;45.184;9.850;2023-02-01T23:39:09;101355.09;;;5.43;100.00
54546;BME280;40444;45.184;9.850;2023-02-01T23:41:37;101349.03;;;5.41;100.00
54546;BME280;40444;45.184;9.850;2023-02-01T23:44:05;101354.59;;;5.36;100.00
54546;BME280;40444;45.184;9.850;2023-02-01T23:46:36;101356.47;;;5.34;100.00
54546;BME280;40444;45.184;9.850;2023-02-01T23:49:07;101361.88;;;5.32;100.00
54546;BME280;40444;45.184;9.850;2023-02-01T23:51:36;101364.53;;;5.32;100.00
54546;BME280;40444;45.184;9.850;2023-02-01T23:54:05;101359.38;;;5.29;100.00
54546;BME280;40444;45.184;9.850;2023-02-01T23:56:40;101361.69;;;5.20;100.00
54546;BME280;40444;45.184;9.850;2023-02-01T23:59:14;101359.88;;;5.20;100.00
